Time;durP1;ratioP1;P1;durP2;ratioP2;P2;SDS_P1;SDS_P2;PMS_P1;PMS_P2;Temp;Humidity;BMP_temperature;BMP_pressure;BME280_temperature;BME280_humidity;BME280_pressure;Samples;Min_cycle;Max_cycle;Signal;HPM_P1;HPM_P2
2022/03/24 00:01:35;;;;;;;46.73;35.97;;;;;;;7.19;55.06;102781.47;5325143;27;20027;-74
2022/03/24 00:04:06;;;;;;;52.53;34.73;;;;;;;7.25;55.07;102781.66;5340223;27;20600;-73
2022/03/24 00:06:38;;;;;;;45.00;34.00;;;;;;;7.06;55.30;102776.69;5332866;27;20085;-75
2022/03/24 00:09:09;;;;;;;50.10;35.63;;;;;;;7.00;56.73;102787.72;5318759;27;20030;-74
2022/03/24 00:11:40;;;;;;;45.93;34.73;;;;;;;6.85;55.33;102782.03;5324595;27;20027;-74
2022/03/24 00:14:12;;;;;;;51.67;33.33;;;;;;;6.88;54.96;102785.59;5339990;27;20029;-74
2022/03/24 00:16:43;;;;;;;47.23;33.93;;;;;;;6.73;56.32;102775.59;5333368;27;20032;-74
2022/03/24 00:19:17;;;;;;;54.17;36.53;;;;;;;6.62;56.59;102776.94;5318552;28;20043;-75
2022/03/24 00:21:49;;;;;;;52.30;36.08;;;;;;;6.53;56.54;102782.66;5324322;27;20486;-75
2022/03/24 00:24:21;;;;;;;62.28;37.25;;;;;;;6.48;56.94;102781.59;5340112;27;20458;-74
2022/03/24 00:26:53;;;;;;;51.20;34.07;;;;;;;6.56;56.50;102774.13;5338358;27;20038;-75
2022/03/24 00:29:24;;;;;;;52.40;35.07;;;;;;;6.47;58.02;102771.19;5339640;27;20071;-73
2022/03/24 00:31:56;;;;;;;56.63;41.13;;;;;;;6.30;58.64;102765.41;5337478;27;20046;-75
2022/03/24 00:34:27;;;;;;;50.57;36.27;;;;;;;6.38;57.65;102769.16;5339808;27;20156;-73
2022/03/24 00:36:58;;;;;;;55.77;40.13;;;;;;;6.27;58.17;102760.97;5325954;28;20039;-72
2022/03/24 00:39:33;;;;;;;57.27;42.97;;;;;;;6.15;58.52;102765.69;5318365;28;20746;-74
2022/03/24 00:42:07;;;;;;;53.50;41.70;;;;;;;6.16;58.38;102757.13;5331481;28;20051;-74
2022/03/24 00:44:43;;;;;;;49.75;37.85;;;;;;;5.99;58.96;102759.97;5338986;27;20745;-75
2022/03/24 00:47:15;;;;;;;48.17;36.63;;;;;;;6.03;58.78;102758.38;5324565;27;20549;-74
2022/03/24 00:49:47;;;;;;;45.57;35.50;;;;;;;6.04;59.15;102760.16;5318001;28;20030;-72
2022/03/24 00:52:19;;;;;;;50.45;35.95;;;;;;;6.08;59.30;102755.94;5332430;28;20529;-74
2022/03/24 00:54:50;;;;;;;52.73;36.03;;;;;;;6.22;59.26;102756.47;5339800;28;20069;-74
2022/03/24 00:57:21;;;;;;;41.77;33.20;;;;;;;6.13;58.98;102755.28;5337659;27;20096;-75
2022/03/24 00:59:53;;;;;;;42.93;33.53;;;;;;;6.04;59.94;102754.97;5333355;27;20506;-75
2022/03/24 01:02:25;;;;;;;81.03;54.20;;;;;;;5.95;59.72;102755.44;5322360;27;20110;-75
2022/03/24 01:04:56;;;;;;;51.22;39.33;;;;;;;6.04;59.19;102757.56;5331703;27;20062;-74
2022/03/24 01:07:28;;;;;;;48.17;36.93;;;;;;;5.93;60.35;102751.06;5343385;27;20110;-75
2022/03/24 01:09:59;;;;;;;44.67;34.83;;;;;;;6.07;59.43;102756.75;5333593;27;20064;-73
2022/03/24 01:12:30;;;;;;;42.80;34.23;;;;;;;5.99;59.29;102752.19;5322446;28;20028;-74
2022/03/24 01:15:12;;;;;;;49.10;35.40;;;;;;;5.78;60.77;102746.16;5331142;27;20107;-72
2022/03/24 01:17:45;;;;;;;49.88;36.63;;;;;;;5.65;60.82;102747.38;5343199;27;20908;-73
2022/03/24 01:20:17;;;;;;;51.75;36.78;;;;;;;5.69;61.88;102749.28;5332093;27;20034;-73
2022/03/24 01:22:49;;;;;;;47.33;36.08;;;;;;;5.41;62.83;102748.19;5321922;28;20067;-74
2022/03/24 01:25:20;;;;;;;51.43;36.37;;;;;;;5.43;63.35;102743.09;5332682;27;20142;-74
2022/03/24 01:27:52;;;;;;;45.13;34.80;;;;;;;5.43;63.28;102746.53;5343268;27;20030;-75
2022/03/24 01:30:23;;;;;;;53.30;38.77;;;;;;;5.56;62.49;102734.09;5331967;27;20059;-75
2022/03/24 01:32:54;;;;;;;46.27;36.17;;;;;;;5.41;62.72;102740.44;5321572;28;20031;-75
2022/03/24 01:35:26;;;;;;;49.00;36.27;;;;;;;5.47;63.57;102737.19;5335446;27;20045;-74
2022/03/24 01:37:58;;;;;;;55.20;35.72;;;;;;;5.41;63.57;102734.34;5343079;27;20477;-72
2022/03/24 01:40:29;;;;;;;49.43;37.17;;;;;;;5.22;63.48;102733.63;5322995;27;20075;-74
2022/03/24 01:43:01;;;;;;;53.37;36.43;;;;;;;5.27;63.94;102729.53;5321872;28;20454;-73
2022/03/24 01:45:33;;;;;;;47.60;36.33;;;;;;;5.39;63.67;102729.13;5338146;27;20031;-74
2022/03/24 01:48:08;;;;;;;;;;;;;;;5.41;60.64;102718.84;5343090;27;20507;-74
2022/03/24 01:50:40;;;;;;;46.38;35.63;;;;;;;5.28;63.79;102718.38;5324359;27;19919;-73
2022/03/24 01:53:12;;;;;;;53.03;34.60;;;;;;;5.29;63.92;102727.00;5321353;28;20088;-73
2022/03/24 01:55:45;;;;;;;45.38;35.67;;;;;;;5.40;63.40;102719.69;5339997;27;20064;-74
2022/03/24 01:58:17;;;;;;;45.25;34.95;;;;;;;5.41;63.33;102718.84;5342685;27;20031;-73
2022/03/24 02:00:49;;;;;;;49.75;34.97;;;;;;;5.30;64.20;102705.50;5323027;27;20114;-74
2022/03/24 02:03:21;;;;;;;48.70;35.10;;;;;;;5.09;64.68;102711.56;5320681;28;20020;-73
2022/03/24 02:05:53;;;;;;;53.42;37.55;;;;;;;5.04;65.67;102715.69;5339821;27;20077;-72
2022/03/24 02:08:24;;;;;;;53.43;36.60;;;;;;;4.90;65.42;102719.41;5342614;27;20065;-72
2022/03/24 02:10:55;;;;;;;53.40;37.23;;;;;;;5.02;65.10;102709.53;5322072;27;20538;-73
2022/03/24 02:13:27;;;;;;;54.43;36.43;;;;;;;5.02;66.07;102708.66;5323783;27;20027;-73
2022/03/24 02:15:59;;;;;;;53.43;38.00;;;;;;;4.68;66.46;102709.84;5341939;27;20473;-74
2022/03/24 02:18:31;;;;;;;50.47;36.37;;;;;;;4.80;67.00;102717.22;5337308;27;20059;-73
2022/03/24 02:21:03;;;;;;;46.75;35.47;;;;;;;4.87;66.30;102719.25;5320635;28;20092;-74
2022/03/24 02:23:34;;;;;;;47.27;35.47;;;;;;;4.88;66.23;102715.88;5323694;27;20023;-73
2022/03/24 02:26:07;;;;;;;53.00;37.47;;;;;;;4.81;66.68;102708.66;5341822;27;20109;-74
2022/03/24 02:28:39;;;;;;;44.22;34.92;;;;;;;4.72;68.03;102709.19;5338031;27;20078;-74
2022/03/24 02:31:14;;;;;;;49.42;35.55;;;;;;;4.66;67.67;102711.50;5320590;28;20039;-74
2022/03/24 02:33:45;;;;;;;51.00;37.03;;;;;;;4.54;68.07;102714.41;5334141;27;20031;-72
2022/03/24 02:36:16;;;;;;;48.27;35.67;;;;;;;4.56;67.92;102708.50;5341712;27;20034;-74
2022/03/24 02:38:48;;;;;;;47.77;34.77;;;;;;;4.58;67.51;102708.56;5327496;27;20036;-73
2022/03/24 02:41:19;;;;;;;51.50;36.03;;;;;;;4.59;67.66;102707.78;5320515;28;20020;-75
2022/03/24 02:43:50;;;;;;;50.83;37.93;;;;;;;4.31;68.40;102708.25;5333377;27;20031;-74
2022/03/24 02:46:22;;;;;;;50.57;36.47;;;;;;;4.42;68.66;102703.56;5331623;27;20031;-74
2022/03/24 02:48:53;;;;;;;53.63;38.10;;;;;;;4.34;69.45;102709.28;5327624;27;20058;-75
2022/03/24 02:51:24;;;;;;;51.90;36.87;;;;;;;4.13;69.66;102713.50;5341546;27;20019;-73
2022/03/24 02:53:56;;;;;;;57.70;37.23;;;;;;;4.18;70.15;102710.28;5333696;27;20136;-72
2022/03/24 02:56:27;;;;;;;55.10;37.93;;;;;;;4.26;69.48;102708.06;5319759;28;20076;-72
2022/03/24 02:58:58;;;;;;;48.47;33.83;;;;;;;4.30;69.04;102712.56;5326751;27;20027;-72
2022/03/24 03:01:30;;;;;;;45.53;34.73;;;;;;;4.26;70.00;102714.94;5341512;27;20031;-73
2022/03/24 03:04:02;;;;;;;49.42;35.35;;;;;;;4.21;69.47;102709.56;5333840;27;20028;-72
2022/03/24 03:06:33;;;;;;;55.27;37.30;;;;;;;4.12;70.40;102712.63;5319631;28;20071;-73
2022/03/24 03:09:06;;;;;;;44.63;34.03;;;;;;;4.19;70.63;102713.78;5326554;27;20494;-71
2022/03/24 03:11:37;;;;;;;52.15;37.88;;;;;;;4.15;69.85;102711.84;5341164;27;20378;-73
2022/03/24 03:14:11;;;;;;;49.33;35.77;;;;;;;3.92;70.39;102703.97;5329781;27;20032;-73
2022/03/24 03:16:44;;;;;;;52.58;36.95;;;;;;;3.98;70.23;102705.97;5319451;28;20030;-73
2022/03/24 03:19:19;;;;;;;50.08;36.13;;;;;;;3.91;70.54;102712.53;5330600;27;20058;-74
2022/03/24 03:21:50;;;;;;;47.67;36.08;;;;;;;3.84;70.91;102711.34;5340416;27;20019;-74
2022/03/24 03:24:22;;;;;;;49.03;36.30;;;;;;;3.96;70.63;102713.63;5328626;27;20050;-73
2022/03/24 03:26:53;;;;;;;49.70;37.07;;;;;;;3.79;71.04;102711.97;5319592;28;20356;-73
2022/03/24 03:29:25;;;;;;;47.37;36.27;;;;;;;3.81;71.14;102710.34;5330229;27;20106;-73
2022/03/24 03:31:56;;;;;;;51.23;36.83;;;;;;;3.68;71.49;102708.00;5340554;27;20019;-75
2022/03/24 03:34:28;;;;;;;56.37;36.73;;;;;;;3.78;71.35;102707.59;5324936;27;20047;-73
2022/03/24 03:36:59;;;;;;;48.07;34.37;;;;;;;3.73;71.44;102709.97;5319062;28;20031;-72
2022/03/24 03:39:31;;;;;;;47.13;36.13;;;;;;;3.80;71.75;102705.97;5332744;27;20041;-74
2022/03/24 03:42:03;;;;;;;45.60;35.73;;;;;;;3.68;72.64;102708.00;5340585;27;20031;-73
2022/03/24 03:44:35;;;;;;;51.22;37.10;;;;;;;3.66;72.14;102707.94;5324851;27;20070;-75
2022/03/24 03:47:07;;;;;;;55.93;38.97;;;;;;;3.44;72.49;102716.34;5319128;28;20111;-74
2022/03/24 03:49:39;;;;;;;57.80;39.15;;;;;;;3.50;72.79;102714.06;5334244;27;20492;-71
2022/03/24 03:52:11;;;;;;;52.93;39.20;;;;;;;3.38;72.97;102714.38;5339590;27;20023;-74
2022/03/24 03:54:43;;;;;;;53.63;38.45;;;;;;;3.51;72.80;102713.25;5338632;27;20039;-74
2022/03/24 03:57:14;;;;;;;49.20;37.80;;;;;;;3.37;73.45;102722.03;5340391;27;20911;-73
2022/03/24 03:59:45;;;;;;;55.13;38.17;;;;;;;3.49;73.51;102714.00;5321764;27;20072;-73
2022/03/24 04:02:17;;;;;;;49.63;36.07;;;;;;;3.50;73.91;102708.03;5318233;28;20035;-71
2022/03/24 04:04:49;;;;;;;54.07;37.93;;;;;;;3.53;73.41;102714.22;5336281;27;20027;-75
2022/03/24 04:07:20;;;;;;;50.10;34.57;;;;;;;3.52;73.07;102716.72;5339640;27;20586;-74
2022/03/24 04:09:51;;;;;;;54.63;36.93;;;;;;;3.41;73.93;102705.88;5321833;27;20777;-73
2022/03/24 04:12:22;;;;;;;47.83;36.73;;;;;;;3.39;73.89;102721.28;5318606;28;20023;-72
2022/03/24 04:14:54;;;;;;;48.70;37.43;;;;;;;3.21;74.25;102710.09;5335808;27;20537;-73
2022/03/24 04:17:27;;;;;;;51.90;38.87;;;;;;;3.23;74.17;102719.66;5339519;27;20022;-71
2022/03/24 04:19:58;;;;;;;;;;;;;;;3.23;72.21;102717.06;5318717;27;20534;-71
2022/03/24 04:22:30;;;;;;;49.17;36.58;;;;;;;3.25;73.62;102718.06;5318700;28;19918;-74
2022/03/24 04:25:02;;;;;;;52.58;37.75;;;;;;;3.24;73.81;102713.69;5326799;27;20030;-75
2022/03/24 04:27:33;;;;;;;47.75;35.92;;;;;;;3.27;73.87;102713.84;5318476;28;20031;-72
2022/03/24 04:30:05;;;;;;;54.40;37.43;;;;;;;3.25;74.45;102707.75;5338992;27;20094;-74
2022/03/24 04:32:36;;;;;;;50.40;36.43;;;;;;;3.22;74.91;102711.84;5322310;27;20478;-75
2022/03/24 04:35:09;;;;;;;51.90;37.60;;;;;;;3.15;74.53;102714.94;5318287;28;20023;-74
2022/03/24 04:37:40;;;;;;;54.78;38.00;;;;;;;2.97;75.20;102720.09;5318004;28;20040;-71
2022/03/24 04:40:15;;;;;;;50.80;37.58;;;;;;;2.88;74.97;102720.50;5318123;28;20360;-72
2022/03/24 04:42:51;;;;;;;52.78;37.22;;;;;;;2.85;75.03;102717.75;5337884;28;20038;-72
2022/03/24 04:45:24;;;;;;;55.35;36.88;;;;;;;2.82;75.29;102717.63;5339537;27;20424;-74
2022/03/24 04:47:55;;;;;;;61.45;41.40;;;;;;;2.71;75.69;102717.09;5318242;27;20069;-71
2022/03/24 04:50:29;;;;;;;57.23;40.10;;;;;;;2.67;75.86;102720.31;5317853;28;20028;-75
2022/03/24 04:53:01;;;;;;;53.55;39.65;;;;;;;2.64;76.11;102720.16;5338518;28;20079;-75
2022/03/24 04:55:32;;;;;;;60.87;41.23;;;;;;;2.67;75.79;102718.63;5337246;27;20028;-74
2022/03/24 04:58:04;;;;;;;56.97;39.23;;;;;;;2.64;75.91;102718.47;5339637;27;20023;-74
2022/03/24 05:00:36;;;;;;;55.42;39.28;;;;;;;2.60;76.21;102723.38;5337774;27;20058;-72
2022/03/24 05:03:07;;;;;;;51.07;37.90;;;;;;;2.65;75.48;102721.94;5339209;27;20059;-75
2022/03/24 05:05:39;;;;;;;54.47;39.53;;;;;;;2.67;75.57;102725.47;5335811;27;20027;-76
2022/03/24 05:08:10;;;;;;;54.90;39.57;;;;;;;2.71;75.40;102723.13;5318322;28;20067;-76
2022/03/24 05:10:41;;;;;;;57.97;39.80;;;;;;;2.67;75.59;102721.22;5320329;28;20031;-74
2022/03/24 05:13:13;;;;;;;53.90;39.10;;;;;;;2.61;75.66;102720.00;5339265;27;20155;-77
2022/03/24 05:15:44;;;;;;;57.73;41.40;;;;;;;2.58;75.59;102723.31;5335943;28;20023;-72
2022/03/24 05:18:15;;;;;;;53.10;39.03;;;;;;;2.60;75.70;102724.25;5317850;28;20055;-72
2022/03/24 05:20:47;;;;;;;52.97;38.47;;;;;;;2.57;75.96;102728.38;5320178;28;20028;-72
2022/03/24 05:23:18;;;;;;;58.10;39.00;;;;;;;2.52;76.36;102723.00;5339204;27;20114;-76
2022/03/24 05:25:50;;;;;;;56.63;39.57;;;;;;;2.47;75.86;102727.91;5336379;27;20074;-73
2022/03/24 05:28:21;;;;;;;58.07;40.57;;;;;;;2.49;76.52;102727.97;5317493;28;20031;-75
2022/03/24 05:30:53;;;;;;;52.77;39.03;;;;;;;2.54;75.86;102735.16;5324850;28;20069;-74
2022/03/24 05:33:24;;;;;;;56.53;41.27;;;;;;;2.48;76.41;102728.78;5339282;27;20122;-73
2022/03/24 05:35:56;;;;;;;56.10;40.53;;;;;;;2.48;76.43;102734.81;5320474;28;20100;-73
2022/03/24 05:38:27;;;;;;;56.13;40.67;;;;;;;2.47;76.30;102737.31;5317253;28;20024;-76
2022/03/24 05:40:58;;;;;;;55.77;39.77;;;;;;;2.50;76.11;102732.34;5332837;28;20053;-76
2022/03/24 05:43:30;;;;;;;61.53;41.53;;;;;;;2.48;75.88;102739.06;5338756;27;20023;-73
2022/03/24 05:46:02;;;;;;;52.97;39.42;;;;;;;2.51;76.08;102737.56;5323576;28;20042;-76
2022/03/24 05:48:33;;;;;;;56.70;41.40;;;;;;;2.46;76.49;102738.13;5321118;28;20035;-75
2022/03/24 05:51:04;;;;;;;54.97;40.57;;;;;;;2.51;76.58;102741.81;5336652;27;20081;-76
2022/03/24 05:53:36;;;;;;;62.93;42.33;;;;;;;2.49;76.74;102736.56;5341017;27;20046;-74
2022/03/24 05:56:08;;;;;;;59.43;40.70;;;;;;;2.55;76.50;102747.19;5321561;27;20477;-74
2022/03/24 05:58:39;;;;;;;56.17;41.10;;;;;;;2.58;76.82;102749.06;5320832;28;20031;-75
2022/03/24 06:01:11;;;;;;;54.17;41.67;;;;;;;2.59;76.52;102745.66;5340296;27;20026;-75
2022/03/24 06:03:45;;;;;;;54.90;39.83;;;;;;;2.64;76.23;102745.91;5324666;27;20023;-73
2022/03/24 06:06:17;;;;;;;49.85;37.00;;;;;;;2.57;76.03;102751.56;5320770;28;20352;-75
2022/03/24 06:08:52;;;;;;;58.42;41.38;;;;;;;2.68;76.40;102753.84;5320896;28;20192;-75
2022/03/24 06:11:24;;;;;;;58.00;40.85;;;;;;;2.71;76.21;102751.44;5320342;28;20412;-74
2022/03/24 06:13:55;;;;;;;54.93;36.97;;;;;;;2.68;75.95;102756.44;5320358;27;20028;-75
2022/03/24 06:16:27;;;;;;;52.80;37.97;;;;;;;2.70;76.31;102752.25;5320387;28;20032;-74
2022/03/24 06:18:59;;;;;;;56.23;38.13;;;;;;;2.81;76.50;102759.66;5320852;28;20034;-74
2022/03/24 06:21:30;;;;;;;56.90;38.10;;;;;;;2.86;76.18;102753.03;5320589;28;20030;-74
2022/03/24 06:24:03;;;;;;;51.23;38.43;;;;;;;2.89;75.76;102756.63;5320498;28;20024;-75
2022/03/24 06:26:35;;;;;;;52.92;38.30;;;;;;;3.03;75.80;102754.78;5320252;28;20035;-73
2022/03/24 06:29:10;;;;;;;60.65;38.10;;;;;;;3.07;76.63;102760.94;5320122;28;20031;-75
2022/03/24 06:31:42;;;;;;;55.55;39.10;;;;;;;3.10;76.45;102756.81;5320063;28;20138;-75
2022/03/24 06:34:13;;;;;;;69.30;41.20;;;;;;;3.24;76.29;102761.81;5320706;28;20554;-75
2022/03/24 06:36:45;;;;;;;61.40;38.50;;;;;;;3.29;75.89;102766.34;5320399;28;20026;-74
2022/03/24 06:39:17;;;;;;;53.50;39.07;;;;;;;3.38;76.23;102762.44;5320257;28;20027;-73
2022/03/24 06:41:49;;;;;;;54.15;40.00;;;;;;;3.45;75.62;102754.22;5319986;28;20027;-74
2022/03/24 06:44:20;;;;;;;59.53;40.83;;;;;;;3.50;75.27;102755.31;5319759;28;20027;-75
2022/03/24 06:46:52;;;;;;;52.13;38.47;;;;;;;3.63;75.82;102757.66;5319940;28;20483;-74
2022/03/24 06:49:23;;;;;;;61.43;41.37;;;;;;;3.72;74.77;102754.66;5320570;28;20028;-74
2022/03/24 06:51:55;;;;;;;56.20;39.97;;;;;;;3.86;74.55;102754.41;5319968;28;20131;-76
2022/03/24 06:54:26;;;;;;;59.30;39.70;;;;;;;3.92;73.86;102760.72;5320174;28;20285;-74
2022/03/24 06:56:57;;;;;;;60.27;41.63;;;;;;;4.04;73.95;102754.38;5320029;28;20047;-76
2022/03/24 06:59:29;;;;;;;70.73;45.00;;;;;;;4.22;73.79;102760.38;5322994;28;20106;-75
2022/03/24 07:02:02;;;;;;;58.13;41.37;;;;;;;4.33;73.79;102756.59;5323098;28;20076;-75
2022/03/24 07:04:34;;;;;;;60.92;42.03;;;;;;;4.48;72.95;102758.06;5319824;28;20268;-75
2022/03/24 07:07:05;;;;;;;52.63;38.57;;;;;;;4.63;72.54;102758.72;5320055;28;20503;-75
2022/03/24 07:09:37;;;;;;;63.67;42.57;;;;;;;4.82;72.13;102757.81;5319224;28;20311;-75
2022/03/24 07:12:09;;;;;;;68.93;42.60;;;;;;;5.03;70.57;102764.72;5319529;28;20034;-76
2022/03/24 07:14:41;;;;;;;59.27;38.73;;;;;;;5.24;70.28;102756.97;5319274;28;20027;-75
2022/03/24 07:17:14;;;;;;;58.45;42.47;;;;;;;5.42;69.57;102769.75;5319395;28;20035;-74
2022/03/24 07:19:46;;;;;;;54.45;39.78;;;;;;;5.58;68.93;102768.69;5319058;28;20016;-74
2022/03/24 07:22:18;;;;;;;62.30;40.67;;;;;;;5.72;68.57;102762.34;5319317;28;20481;-74
2022/03/24 07:24:49;;;;;;;57.13;39.47;;;;;;;5.92;67.45;102760.50;5319450;28;20026;-76
2022/03/24 07:27:21;;;;;;;54.43;38.17;;;;;;;6.07;66.94;102769.72;5319287;28;20031;-75
2022/03/24 07:29:52;;;;;;;58.87;38.83;;;;;;;6.26;66.25;102766.97;5317516;28;20135;-74
2022/03/24 07:32:24;;;;;;;60.40;37.30;;;;;;;6.49;64.70;102769.56;5317573;28;20039;-74
2022/03/24 07:34:56;;;;;;;57.03;38.45;;;;;;;6.68;63.00;102778.84;5319084;28;20035;-75
2022/03/24 07:37:31;;;;;;;58.77;39.60;;;;;;;6.82;63.39;102781.94;5319458;28;20266;-75
2022/03/24 07:40:03;;;;;;;47.53;36.33;;;;;;;7.00;62.42;102773.91;5319746;28;20027;-74
2022/03/24 07:42:34;;;;;;;51.33;37.42;;;;;;;7.23;61.68;102775.56;5319045;28;20036;-74
2022/03/24 07:45:06;;;;;;;54.10;37.90;;;;;;;7.39;62.23;102774.34;5318670;28;20024;-75
2022/03/24 07:48:20;;;;;;;49.05;35.58;;;;;;;7.46;60.98;102772.81;5319069;28;20034;-74
2022/03/24 07:50:54;;;;;;;48.58;35.65;;;;;;;7.70;60.71;102770.13;5318880;28;20240;-76
2022/03/24 07:53:28;;;;;;;51.38;36.60;;;;;;;7.85;59.47;102762.78;5318985;28;20028;-75
2022/03/24 07:56:01;;;;;;;51.03;37.38;;;;;;;8.09;58.49;102772.16;5318799;28;20055;-74
2022/03/24 07:58:32;;;;;;;53.30;36.17;;;;;;;8.19;58.27;102776.78;5319003;28;20019;-75
2022/03/24 08:01:04;;;;;;;56.27;39.70;;;;;;;8.32;57.26;102779.72;5318292;28;20059;-75
2022/03/24 08:03:35;;;;;;;53.10;39.20;;;;;;;8.65;57.47;102781.56;5317286;28;20244;-76
2022/03/24 08:06:06;;;;;;;56.13;39.33;;;;;;;8.88;55.84;102783.03;5318965;28;20547;-74
2022/03/24 08:08:38;;;;;;;53.23;37.03;;;;;;;9.10;53.43;102787.06;5318596;28;20063;-75
2022/03/24 08:11:09;;;;;;;55.37;38.27;;;;;;;9.33;51.88;102776.34;5325639;28;20020;-75
2022/03/24 08:13:40;;;;;;;50.70;36.77;;;;;;;9.47;52.67;102787.97;5319257;28;20825;-74
2022/03/24 08:16:12;;;;;;;50.43;36.40;;;;;;;9.68;51.83;102782.41;5318015;28;20535;-76
2022/03/24 08:18:43;;;;;;;48.23;37.00;;;;;;;9.92;50.49;102780.28;5318630;28;20024;-75
2022/03/24 08:21:14;;;;;;;46.37;36.07;;;;;;;10.09;49.88;102783.28;5318557;28;20026;-74
2022/03/24 08:23:46;;;;;;;54.60;34.77;;;;;;;10.32;49.60;102782.06;5318120;28;20068;-74
2022/03/24 08:26:17;;;;;;;50.07;36.63;;;;;;;10.58;49.84;102787.81;5318107;28;20050;-75
2022/03/24 08:28:50;;;;;;;54.75;35.90;;;;;;;10.82;48.33;102786.50;5317737;28;20047;-75
2022/03/24 08:31:22;;;;;;;49.22;36.13;;;;;;;11.06;46.57;102790.38;5316618;28;20054;-75
2022/03/24 08:33:54;;;;;;;51.70;37.20;;;;;;;11.20;45.77;102796.72;5318082;28;20051;-75
2022/03/24 08:36:26;;;;;;;51.50;35.13;;;;;;;11.41;44.64;102790.09;5318110;28;20713;-77
2022/03/24 08:38:59;;;;;;;52.70;37.37;;;;;;;11.70;46.91;102789.69;5318040;28;20032;-74
2022/03/24 08:41:31;;;;;;;44.45;34.10;;;;;;;11.84;44.85;102782.91;5316405;28;20093;-75
2022/03/24 08:44:03;;;;;;;49.87;34.67;;;;;;;12.15;46.23;102778.13;5318141;28;20055;-75
2022/03/24 08:46:35;;;;;;;44.75;32.40;;;;;;;12.22;41.36;102785.19;5317975;28;20109;-75
2022/03/24 08:49:06;;;;;;;49.20;32.80;;;;;;;12.43;41.96;102788.91;5317749;28;20028;-76
2022/03/24 08:51:38;;;;;;;42.73;30.33;;;;;;;12.53;38.85;102786.44;5316046;28;20040;-75
2022/03/24 08:54:09;;;;;;;52.50;30.60;;;;;;;12.74;39.66;102791.00;5317748;28;20055;-76
2022/03/24 08:56:40;;;;;;;43.03;30.60;;;;;;;13.08;39.88;102791.34;5316756;28;20023;-75
2022/03/24 08:59:12;;;;;;;37.43;26.43;;;;;;;13.64;36.51;102790.06;5317929;28;20164;-76
2022/03/24 09:01:43;;;;;;;37.63;28.93;;;;;;;14.21;35.86;102795.59;5317767;28;20089;-77
2022/03/24 09:04:16;;;;;;;36.60;29.43;;;;;;;14.73;34.63;102789.69;5318217;28;20027;-76
2022/03/24 09:06:48;;;;;;;36.78;28.05;;;;;;;15.02;32.27;102801.97;5317573;28;20052;-75
2022/03/24 09:09:23;;;;;;;33.78;26.80;;;;;;;15.47;31.21;102801.94;5317533;28;20066;-76
2022/03/24 09:11:55;;;;;;;31.55;26.92;;;;;;;15.82;32.05;102794.03;5317709;28;20031;-76
2022/03/24 09:14:26;;;;;;;35.22;28.33;;;;;;;16.22;31.02;102806.19;5317527;28;20019;-76
2022/03/24 09:16:58;;;;;;;34.57;29.37;;;;;;;16.73;31.70;102798.91;5317521;28;20486;-76
2022/03/24 09:19:29;;;;;;;35.87;28.53;;;;;;;17.09;31.45;102799.53;5319569;28;20181;-75
2022/03/24 09:22:04;;;;;;;35.67;27.77;;;;;;;17.58;30.66;102806.16;5321722;28;20186;-75
2022/03/24 09:24:36;;;;;;;34.95;28.08;;;;;;;17.65;27.97;102799.06;5321859;28;20024;-75
2022/03/24 09:27:07;;;;;;;34.15;27.60;;;;;;;17.57;28.99;102803.53;5321336;28;20031;-75
2022/03/24 09:29:39;;;;;;;29.83;26.30;;;;;;;17.72;26.92;102800.72;5321283;28;20032;-75
2022/03/24 09:32:12;;;;;;;30.57;26.37;;;;;;;18.16;27.94;102806.41;5321821;27;20193;-75
2022/03/24 09:34:44;;;;;;;29.80;25.77;;;;;;;18.18;26.24;102802.00;5321676;28;20036;-76
2022/03/24 09:37:18;;;;;;;32.00;26.80;;;;;;;18.49;26.51;102804.25;5321526;28;20088;-75
2022/03/24 09:39:50;;;;;;;29.77;25.83;;;;;;;18.26;26.30;102801.88;5321648;28;20027;-75
2022/03/24 09:42:21;;;;;;;30.17;26.38;;;;;;;18.94;25.06;102804.50;5321635;28;20066;-76
2022/03/24 09:44:57;;;;;;;31.87;25.47;;;;;;;18.91;26.11;102805.41;5321823;28;20569;-76
2022/03/24 09:47:30;;;;;;;29.23;25.02;;;;;;;19.33;25.01;102809.16;5321321;28;20035;-76
2022/03/24 09:50:02;;;;;;;26.83;23.83;;;;;;;19.15;25.10;102807.69;5321491;27;20267;-74
2022/03/24 09:52:33;;;;;;;;;;;;;;;20.46;24.83;102799.88;5321976;28;20020;-75
2022/03/24 09:55:07;;;;;;;26.10;20.57;;;;;;;19.84;22.70;102803.84;5319556;28;19912;-76
2022/03/24 09:57:42;;;;;;;26.88;21.23;;;;;;;20.57;23.51;102796.09;5321337;28;20035;-76
2022/03/24 10:00:15;;;;;;;37.58;23.30;;;;;;;20.97;22.33;102802.25;5321264;28;20031;-75
2022/03/24 10:03:14;;;;;;;23.30;20.88;;;;;;;21.74;22.98;102799.44;5321222;28;20104;-76
2022/03/24 10:06:10;;;;;;;25.38;22.90;;;;;;;21.24;21.61;102800.69;5320831;28;20023;-75
2022/03/24 10:08:49;;;;;;;25.58;22.98;;;;;;;21.49;21.23;102803.63;5321258;27;20034;-77
2022/03/24 10:11:24;;;;;;;27.90;23.48;;;;;;;22.28;20.46;102797.88;5321551;28;20408;-76
2022/03/24 10:13:58;;;;;;;24.23;21.83;;;;;;;22.35;19.40;102795.00;5321064;28;20023;-76
2022/03/24 10:16:32;;;;;;;24.92;22.35;;;;;;;22.56;19.25;102801.44;5321022;28;20034;-76
2022/03/24 10:19:05;;;;;;;24.30;21.50;;;;;;;22.52;20.03;102794.50;5320912;28;20197;-75
2022/03/24 10:21:40;;;;;;;24.45;20.33;;;;;;;23.23;18.50;102791.31;5320878;28;20194;-75
2022/03/24 10:24:22;;;;;;;22.67;20.30;;;;;;;23.20;17.56;102786.09;5320820;28;20055;-76
2022/03/24 10:27:00;;;;;;;21.98;19.70;;;;;;;23.72;16.95;102789.59;5320303;28;20040;-76
2022/03/24 10:29:34;;;;;;;21.20;19.10;;;;;;;24.13;17.14;102784.53;5320698;28;20535;-77
2022/03/24 10:32:14;;;;;;;21.40;19.10;;;;;;;24.17;17.32;102785.31;5319690;28;20054;-76
2022/03/24 10:34:46;;;;;;;21.48;19.35;;;;;;;24.08;18.04;102782.97;5320459;28;20458;-76
2022/03/24 10:37:19;;;;;;;21.90;19.73;;;;;;;24.64;17.24;102790.56;5320405;28;20402;-77
2022/03/24 10:39:59;;;;;;;22.55;20.13;;;;;;;24.08;17.73;102782.97;5320510;28;20024;-77
2022/03/24 10:42:36;;;;;;;20.33;18.40;;;;;;;24.84;16.20;102784.44;5320192;28;20024;-77
2022/03/24 10:45:19;;;;;;;22.40;20.23;;;;;;;24.31;16.16;102782.97;5321170;27;20084;-77
2022/03/24 10:47:55;;;;;;;22.40;20.30;;;;;;;23.40;16.74;102780.13;5319982;28;20035;-77
2022/03/24 10:50:29;;;;;;;24.23;20.60;;;;;;;23.89;17.47;102777.47;5320452;28;20055;-74
2022/03/24 10:53:12;;;;;;;21.42;18.75;;;;;;;24.92;16.69;102778.75;5319600;28;20493;-76
2022/03/24 10:55:43;;;;;;;45.92;22.95;;;;;;;26.02;15.22;102770.38;5320016;28;20032;-75
2022/03/24 10:58:18;;;;;;;22.60;20.10;;;;;;;26.53;14.37;102775.09;5320779;28;20054;-75
2022/03/24 11:00:52;;;;;;;22.77;20.60;;;;;;;26.45;15.50;102771.94;5320227;28;20078;-76
2022/03/24 11:03:24;;;;;;;21.95;18.00;;;;;;;26.91;14.76;102775.91;5320377;28;20030;-75
2022/03/24 11:06:08;;;;;;;;;;;;;;;28.63;14.61;102775.66;5320665;28;20704;-75
2022/03/24 11:08:41;;;;;;;18.20;13.70;;;;;;;27.25;14.23;102778.66;5320038;28;20343;-76
2022/03/24 11:11:15;;;;;;;22.48;20.17;;;;;;;26.91;14.81;102783.94;5320743;28;20024;-76
2022/03/24 11:13:52;;;;;;;24.63;22.33;;;;;;;25.02;14.78;102781.91;5320023;28;20034;-75
2022/03/24 11:16:26;;;;;;;23.58;20.85;;;;;;;26.58;15.22;102775.75;5320259;28;20217;-76
2022/03/24 11:18:59;;;;;;;22.08;19.77;;;;;;;27.02;14.64;102772.69;5320348;28;20360;-76
2022/03/24 11:21:34;;;;;;;23.35;18.02;;;;;;;26.99;14.98;102777.34;5319809;28;20027;-76
2022/03/24 11:24:06;;;;;;;25.45;18.65;;;;;;;27.99;13.61;102764.91;5319593;28;20031;-76
2022/03/24 11:26:38;;;;;;;23.33;18.95;;;;;;;26.36;14.05;102773.28;5320320;28;20042;-76
2022/03/24 11:29:10;;;;;;;;;;;;;;;28.90;14.58;102773.16;5321546;28;20023;-75
2022/03/24 11:31:45;;;;;;;25.30;19.17;;;;;;;28.01;14.14;102772.88;5320455;28;20358;-76
2022/03/24 11:34:18;;;;;;;27.23;23.20;;;;;;;28.29;13.05;102766.81;5319866;28;20035;-76
2022/03/24 11:36:50;;;;;;;27.75;24.83;;;;;;;28.43;13.39;102762.47;5319489;28;20042;-76
2022/03/24 11:39:23;;;;;;;28.30;25.38;;;;;;;29.19;13.36;102762.53;5319364;28;20028;-76
2022/03/24 11:41:57;;;;;;;27.33;22.98;;;;;;;28.80;12.75;102755.00;5318785;28;20412;-76